sensor_id;sensor_type;location;lat;lon;timestamp;P1;durP1;ratioP1;P2;durP2;ratioP2
17921;SDS011;9086;50.966;3.144;2023-07-31T00:00:41;17.05;;;6.93;;
17921;SDS011;9086;50.966;3.144;2023-07-31T00:03:07;15.80;;;6.67;;
17921;SDS011;9086;50.966;3.144;2023-07-31T00:05:33;18.38;;;6.53;;
17921;SDS011;9086;50.966;3.144;2023-07-31T00:07:59;13.23;;;6.10;;
17921;SDS011;9086;50.966;3.144;2023-07-31T00:10:25;14.32;;;6.22;;
17921;SDS011;9086;50.966;3.144;2023-07-31T00:12:51;14.97;;;6.47;;
17921;SDS011;9086;50.966;3.144;2023-07-31T00:15:17;16.02;;;6.55;;
17921;SDS011;9086;50.966;3.144;2023-07-31T00:17:43;10.23;;;6.17;;
17921;SDS011;9086;50.966;3.144;2023-07-31T00:20:09;16.67;;;6.63;;
17921;SDS011;9086;50.966;3.144;2023-07-31T00:22:35;12.53;;;5.93;;
17921;SDS011;9086;50.966;3.144;2023-07-31T00:25:01;13.63;;;6.13;;
17921;SDS011;9086;50.966;3.144;2023-07-31T00:27:28;13.37;;;6.17;;
17921;SDS011;9086;50.966;3.144;2023-07-31T00:29:54;13.23;;;5.77;;
17921;SDS011;9086;50.966;3.144;2023-07-31T00:32:20;16.83;;;6.00;;
17921;SDS011;9086;50.966;3.144;2023-07-31T00:34:46;13.27;;;5.20;;
17921;SDS011;9086;50.966;3.144;2023-07-31T00:37:12;13.35;;;6.20;;
17921;SDS011;9086;50.966;3.144;2023-07-31T00:39:38;13.77;;;5.83;;
17921;SDS011;9086;50.966;3.144;2023-07-31T00:42:04;14.75;;;6.25;;
17921;SDS011;9086;50.966;3.144;2023-07-31T00:44:30;14.40;;;5.93;;
17921;SDS011;9086;50.966;3.144;2023-07-31T00:46:56;11.73;;;5.47;;
17921;SDS011;9086;50.966;3.144;2023-07-31T00:49:24;15.63;;;6.03;;
17921;SDS011;9086;50.966;3.144;2023-07-31T00:51:50;13.57;;;5.73;;
17921;SDS011;9086;50.966;3.144;2023-07-31T00:54:16;13.45;;;5.78;;
17921;SDS011;9086;50.966;3.144;2023-07-31T00:56:44;15.40;;;5.27;;
17921;SDS011;9086;50.966;3.144;2023-07-31T00:59:11;13.93;;;5.77;;
17921;SDS011;9086;50.966;3.144;2023-07-31T01:01:37;13.75;;;5.13;;
17921;SDS011;9086;50.966;3.144;2023-07-31T01:04:03;13.33;;;4.93;;
17921;SDS011;9086;50.966;3.144;2023-07-31T01:09:11;13.33;;;5.47;;
17921;SDS011;9086;50.966;3.144;2023-07-31T01:11:46;13.23;;;5.53;;
17921;SDS011;9086;50.966;3.144;2023-07-31T01:14:13;13.37;;;5.20;;
17921;SDS011;9086;50.966;3.144;2023-07-31T01:16:39;11.93;;;4.82;;
17921;SDS011;9086;50.966;3.144;2023-07-31T01:19:06;10.17;;;4.67;;
17921;SDS011;9086;50.966;3.144;2023-07-31T01:26:40;7.93;;;4.85;;
17921;SDS011;9086;50.966;3.144;2023-07-31T01:29:19;11.85;;;4.88;;
17921;SDS011;9086;50.966;3.144;2023-07-31T01:31:47;10.83;;;5.27;;
17921;SDS011;9086;50.966;3.144;2023-07-31T01:34:14;8.63;;;4.63;;
17921;SDS011;9086;50.966;3.144;2023-07-31T01:36:43;10.97;;;5.23;;
17921;SDS011;9086;50.966;3.144;2023-07-31T01:39:09;11.73;;;5.80;;
17921;SDS011;9086;50.966;3.144;2023-07-31T01:41:35;12.32;;;4.75;;
17921;SDS011;9086;50.966;3.144;2023-07-31T01:44:01;8.67;;;4.83;;
17921;SDS011;9086;50.966;3.144;2023-07-31T01:46:27;11.63;;;4.53;;
17921;SDS011;9086;50.966;3.144;2023-07-31T01:48:53;11.37;;;5.03;;
17921;SDS011;9086;50.966;3.144;2023-07-31T01:51:19;12.43;;;4.47;;
17921;SDS011;9086;50.966;3.144;2023-07-31T01:53:45;15.23;;;4.83;;
17921;SDS011;9086;50.966;3.144;2023-07-31T01:56:11;10.70;;;5.30;;
17921;SDS011;9086;50.966;3.144;2023-07-31T01:58:37;12.57;;;4.90;;
17921;SDS011;9086;50.966;3.144;2023-07-31T02:01:03;11.20;;;4.73;;
17921;SDS011;9086;50.966;3.144;2023-07-31T02:03:29;16.23;;;5.97;;
17921;SDS011;9086;50.966;3.144;2023-07-31T02:05:55;11.87;;;5.50;;
17921;SDS011;9086;50.966;3.144;2023-07-31T02:08:21;10.77;;;4.63;;
17921;SDS011;9086;50.966;3.144;2023-07-31T02:10:47;9.00;;;4.90;;
17921;SDS011;9086;50.966;3.144;2023-07-31T02:13:13;12.23;;;4.85;;
17921;SDS011;9086;50.966;3.144;2023-07-31T02:15:39;11.45;;;4.93;;
17921;SDS011;9086;50.966;3.144;2023-07-31T02:18:05;7.45;;;4.45;;
17921;SDS011;9086;50.966;3.144;2023-07-31T02:20:34;10.73;;;4.55;;
17921;SDS011;9086;50.966;3.144;2023-07-31T02:23:00;9.82;;;4.90;;
17921;SDS011;9086;50.966;3.144;2023-07-31T02:25:26;10.43;;;5.30;;
17921;SDS011;9086;50.966;3.144;2023-07-31T02:27:52;11.63;;;4.95;;
17921;SDS011;9086;50.966;3.144;2023-07-31T02:30:18;12.63;;;4.38;;
17921;SDS011;9086;50.966;3.144;2023-07-31T02:32:44;8.03;;;3.80;;
17921;SDS011;9086;50.966;3.144;2023-07-31T02:35:10;9.03;;;4.20;;
17921;SDS011;9086;50.966;3.144;2023-07-31T02:37:40;16.60;;;4.82;;
17921;SDS011;9086;50.966;3.144;2023-07-31T02:40:06;7.77;;;4.00;;
17921;SDS011;9086;50.966;3.144;2023-07-31T02:42:32;6.13;;;4.00;;
17921;SDS011;9086;50.966;3.144;2023-07-31T02:44:58;8.80;;;4.63;;
17921;SDS011;9086;50.966;3.144;2023-07-31T02:47:24;10.48;;;4.88;;
17921;SDS011;9086;50.966;3.144;2023-07-31T02:49:50;8.25;;;3.95;;
17921;SDS011;9086;50.966;3.144;2023-07-31T02:52:16;10.87;;;5.17;;
17921;SDS011;9086;50.966;3.144;2023-07-31T02:54:42;7.50;;;4.50;;
17921;SDS011;9086;50.966;3.144;2023-07-31T02:57:08;8.53;;;4.27;;
17921;SDS011;9086;50.966;3.144;2023-07-31T02:59:34;9.03;;;4.43;;
17921;SDS011;9086;50.966;3.144;2023-07-31T03:02:00;9.37;;;4.67;;
17921;SDS011;9086;50.966;3.144;2023-07-31T03:04:26;11.43;;;4.80;;
17921;SDS011;9086;50.966;3.144;2023-07-31T03:06:52;8.87;;;4.37;;
17921;SDS011;9086;50.966;3.144;2023-07-31T03:09:18;9.43;;;4.00;;
17921;SDS011;9086;50.966;3.144;2023-07-31T03:11:44;8.23;;;4.00;;
17921;SDS011;9086;50.966;3.144;2023-07-31T03:14:10;7.13;;;3.80;;
17921;SDS011;9086;50.966;3.144;2023-07-31T03:16:36;12.37;;;4.43;;
17921;SDS011;9086;50.966;3.144;2023-07-31T03:19:02;8.93;;;4.47;;
17921;SDS011;9086;50.966;3.144;2023-07-31T03:21:28;8.60;;;4.10;;
17921;SDS011;9086;50.966;3.144;2023-07-31T03:23:54;8.43;;;4.37;;
17921;SDS011;9086;50.966;3.144;2023-07-31T03:26:20;8.77;;;4.60;;
17921;SDS011;9086;50.966;3.144;2023-07-31T03:28:46;8.53;;;4.63;;
17921;SDS011;9086;50.966;3.144;2023-07-31T03:31:12;7.43;;;3.73;;
17921;SDS011;9086;50.966;3.144;2023-07-31T03:33:38;10.87;;;4.37;;
17921;SDS011;9086;50.966;3.144;2023-07-31T03:36:04;11.68;;;5.60;;
17921;SDS011;9086;50.966;3.144;2023-07-31T03:38:31;8.37;;;4.67;;
17921;SDS011;9086;50.966;3.144;2023-07-31T03:40:57;14.30;;;5.37;;
17921;SDS011;9086;50.966;3.144;2023-07-31T03:43:24;10.82;;;5.00;;
17921;SDS011;9086;50.966;3.144;2023-07-31T03:45:50;7.13;;;4.33;;
17921;SDS011;9086;50.966;3.144;2023-07-31T03:48:16;9.23;;;4.87;;
17921;SDS011;9086;50.966;3.144;2023-07-31T03:50:42;9.47;;;4.63;;
17921;SDS011;9086;50.966;3.144;2023-07-31T03:53:08;7.80;;;4.70;;
17921;SDS011;9086;50.966;3.144;2023-07-31T03:55:34;9.50;;;4.47;;
17921;SDS011;9086;50.966;3.144;2023-07-31T03:58:00;7.60;;;3.97;;
17921;SDS011;9086;50.966;3.144;2023-07-31T04:00:26;9.07;;;4.33;;
17921;SDS011;9086;50.966;3.144;2023-07-31T04:02:53;7.97;;;3.83;;
17921;SDS011;9086;50.966;3.144;2023-07-31T04:05:19;9.80;;;4.27;;
17921;SDS011;9086;50.966;3.144;2023-07-31T04:07:45;4.47;;;3.50;;
17921;SDS011;9086;50.966;3.144;2023-07-31T04:10:10;8.60;;;3.87;;
17921;SDS011;9086;50.966;3.144;2023-07-31T04:12:36;6.70;;;3.83;;
17921;SDS011;9086;50.966;3.144;2023-07-31T04:15:03;8.77;;;4.47;;
17921;SDS011;9086;50.966;3.144;2023-07-31T04:17:29;5.68;;;3.80;;
17921;SDS011;9086;50.966;3.144;2023-07-31T04:19:55;8.43;;;4.27;;
17921;SDS011;9086;50.966;3.144;2023-07-31T04:22:22;5.47;;;4.05;;
17921;SDS011;9086;50.966;3.144;2023-07-31T04:24:48;8.03;;;4.67;;
17921;SDS011;9086;50.966;3.144;2023-07-31T04:27:14;7.20;;;4.60;;
17921;SDS011;9086;50.966;3.144;2023-07-31T04:29:40;10.43;;;4.77;;
17921;SDS011;9086;50.966;3.144;2023-07-31T04:32:07;6.53;;;4.65;;
17921;SDS011;9086;50.966;3.144;2023-07-31T04:34:34;6.93;;;4.23;;
17921;SDS011;9086;50.966;3.144;2023-07-31T04:37:00;6.03;;;4.40;;
17921;SDS011;9086;50.966;3.144;2023-07-31T04:39:26;9.27;;;4.73;;
17921;SDS011;9086;50.966;3.144;2023-07-31T04:41:52;8.70;;;4.28;;
17921;SDS011;9086;50.966;3.144;2023-07-31T04:44:18;7.23;;;4.07;;
17921;SDS011;9086;50.966;3.144;2023-07-31T04:46:44;6.23;;;4.27;;
17921;SDS011;9086;50.966;3.144;2023-07-31T04:49:10;5.17;;;4.10;;
17921;SDS011;9086;50.966;3.144;2023-07-31T04:51:36;6.77;;;3.33;;
17921;SDS011;9086;50.966;3.144;2023-07-31T04:54:02;9.27;;;4.43;;
17921;SDS011;9086;50.966;3.144;2023-07-31T04:56:28;7.97;;;4.20;;
17921;SDS011;9086;50.966;3.144;2023-07-31T04:58:54;9.37;;;4.20;;
17921;SDS011;9086;50.966;3.144;2023-07-31T05:01:20;7.37;;;3.87;;
17921;SDS011;9086;50.966;3.144;2023-07-31T05:03:46;7.10;;;4.47;;
17921;SDS011;9086;50.966;3.144;2023-07-31T05:06:12;8.70;;;5.37;;
17921;SDS011;9086;50.966;3.144;2023-07-31T05:08:40;6.17;;;4.70;;
17921;SDS011;9086;50.966;3.144;2023-07-31T05:11:06;5.60;;;4.33;;
17921;SDS011;9086;50.966;3.144;2023-07-31T05:13:32;5.13;;;4.63;;
17921;SDS011;9086;50.966;3.144;2023-07-31T05:15:58;8.77;;;5.07;;
17921;SDS011;9086;50.966;3.144;2023-07-31T05:18:24;7.17;;;5.10;;
17921;SDS011;9086;50.966;3.144;2023-07-31T05:20:50;7.93;;;5.23;;
17921;SDS011;9086;50.966;3.144;2023-07-31T05:23:16;9.43;;;5.93;;
17921;SDS011;9086;50.966;3.144;2023-07-31T05:25:42;6.65;;;5.93;;
17921;SDS011;9086;50.966;3.144;2023-07-31T05:28:08;9.35;;;6.22;;
17921;SDS011;9086;50.966;3.144;2023-07-31T05:30:34;6.33;;;5.73;;
17921;SDS011;9086;50.966;3.144;2023-07-31T05:33:00;9.13;;;6.50;;
17921;SDS011;9086;50.966;3.144;2023-07-31T05:35:26;8.68;;;7.18;;
17921;SDS011;9086;50.966;3.144;2023-07-31T05:37:52;8.57;;;6.93;;
17921;SDS011;9086;50.966;3.144;2023-07-31T05:40:18;8.07;;;6.30;;
17921;SDS011;9086;50.966;3.144;2023-07-31T05:42:44;8.43;;;6.13;;
17921;SDS011;9086;50.966;3.144;2023-07-31T05:45:10;8.27;;;6.15;;
17921;SDS011;9086;50.966;3.144;2023-07-31T05:47:36;8.32;;;7.18;;
17921;SDS011;9086;50.966;3.144;2023-07-31T05:50:02;7.67;;;6.40;;
17921;SDS011;9086;50.966;3.144;2023-07-31T05:52:28;8.77;;;6.80;;
17921;SDS011;9086;50.966;3.144;2023-07-31T05:54:54;10.80;;;6.40;;
17921;SDS011;9086;50.966;3.144;2023-07-31T05:57:20;9.83;;;6.47;;
17921;SDS011;9086;50.966;3.144;2023-07-31T05:59:46;8.53;;;5.50;;
17921;SDS011;9086;50.966;3.144;2023-07-31T06:02:12;8.40;;;5.17;;
17921;SDS011;9086;50.966;3.144;2023-07-31T06:04:38;6.80;;;5.50;;
17921;SDS011;9086;50.966;3.144;2023-07-31T06:07:04;6.37;;;4.80;;
17921;SDS011;9086;50.966;3.144;2023-07-31T06:09:30;6.07;;;4.93;;
17921;SDS011;9086;50.966;3.144;2023-07-31T06:11:57;9.20;;;5.07;;
17921;SDS011;9086;50.966;3.144;2023-07-31T06:14:23;5.88;;;4.90;;
17921;SDS011;9086;50.966;3.144;2023-07-31T06:16:49;10.97;;;5.23;;
17921;SDS011;9086;50.966;3.144;2023-07-31T06:19:15;7.40;;;5.30;;
17921;SDS011;9086;50.966;3.144;2023-07-31T06:21:41;7.33;;;4.57;;
17921;SDS011;9086;50.966;3.144;2023-07-31T06:24:08;8.17;;;4.90;;
17921;SDS011;9086;50.966;3.144;2023-07-31T06:26:34;9.13;;;4.33;;
17921;SDS011;9086;50.966;3.144;2023-07-31T06:29:00;11.43;;;4.03;;
17921;SDS011;9086;50.966;3.144;2023-07-31T06:31:26;5.83;;;4.10;;
17921;SDS011;9086;50.966;3.144;2023-07-31T06:33:52;6.50;;;4.07;;
17921;SDS011;9086;50.966;3.144;2023-07-31T06:36:18;8.10;;;5.17;;
17921;SDS011;9086;50.966;3.144;2023-07-31T06:38:44;4.23;;;3.53;;
17921;SDS011;9086;50.966;3.144;2023-07-31T06:41:10;5.03;;;3.73;;
17921;SDS011;9086;50.966;3.144;2023-07-31T06:43:36;6.77;;;3.83;;
17921;SDS011;9086;50.966;3.144;2023-07-31T06:46:06;5.13;;;3.60;;
17921;SDS011;9086;50.966;3.144;2023-07-31T06:48:32;11.27;;;4.32;;
17921;SDS011;9086;50.966;3.144;2023-07-31T06:50:59;7.45;;;3.85;;
17921;SDS011;9086;50.966;3.144;2023-07-31T06:53:25;6.97;;;3.47;;
17921;SDS011;9086;50.966;3.144;2023-07-31T06:55:51;5.80;;;3.40;;
17921;SDS011;9086;50.966;3.144;2023-07-31T06:58:17;5.80;;;3.30;;
17921;SDS011;9086;50.966;3.144;2023-07-31T07:00:43;3.93;;;3.00;;
17921;SDS011;9086;50.966;3.144;2023-07-31T07:03:09;3.93;;;2.90;;
17921;SDS011;9086;50.966;3.144;2023-07-31T07:05:35;5.40;;;2.90;;
17921;SDS011;9086;50.966;3.144;2023-07-31T07:08:01;4.47;;;3.83;;
17921;SDS011;9086;50.966;3.144;2023-07-31T07:10:27;5.60;;;3.40;;
17921;SDS011;9086;50.966;3.144;2023-07-31T07:12:54;6.53;;;3.55;;
17921;SDS011;9086;50.966;3.144;2023-07-31T07:15:20;3.72;;;3.42;;
17921;SDS011;9086;50.966;3.144;2023-07-31T07:17:46;3.63;;;3.33;;
17921;SDS011;9086;50.966;3.144;2023-07-31T07:20:12;3.67;;;3.38;;
17921;SDS011;9086;50.966;3.144;2023-07-31T07:22:38;4.90;;;4.07;;
17921;SDS011;9086;50.966;3.144;2023-07-31T07:25:06;5.33;;;3.63;;
17921;SDS011;9086;50.966;3.144;2023-07-31T07:27:32;4.40;;;3.97;;
17921;SDS011;9086;50.966;3.144;2023-07-31T07:29:58;6.35;;;4.45;;
17921;SDS011;9086;50.966;3.144;2023-07-31T07:32:24;4.23;;;3.83;;
17921;SDS011;9086;50.966;3.144;2023-07-31T07:34:50;3.70;;;3.40;;
17921;SDS011;9086;50.966;3.144;2023-07-31T07:37:17;4.93;;;4.13;;
17921;SDS011;9086;50.966;3.144;2023-07-31T07:39:43;5.10;;;4.32;;
17921;SDS011;9086;50.966;3.144;2023-07-31T07:42:09;5.53;;;3.77;;
17921;SDS011;9086;50.966;3.144;2023-07-31T07:44:35;5.53;;;4.63;;
17921;SDS011;9086;50.966;3.144;2023-07-31T07:47:01;4.30;;;3.87;;
17921;SDS011;9086;50.966;3.144;2023-07-31T07:49:27;4.55;;;4.28;;
17921;SDS011;9086;50.966;3.144;2023-07-31T07:51:53;4.78;;;4.32;;
17921;SDS011;9086;50.966;3.144;2023-07-31T07:54:19;4.65;;;4.30;;
17921;SDS011;9086;50.966;3.144;2023-07-31T07:56:48;5.50;;;4.17;;
17921;SDS011;9086;50.966;3.144;2023-07-31T07:59:14;5.60;;;4.78;;
17921;SDS011;9086;50.966;3.144;2023-07-31T08:01:40;4.38;;;4.03;;
17921;SDS011;9086;50.966;3.144;2023-07-31T08:04:06;3.60;;;3.30;;
17921;SDS011;9086;50.966;3.144;2023-07-31T08:06:32;5.60;;;4.28;;
17921;SDS011;9086;50.966;3.144;2023-07-31T08:08:59;4.90;;;4.57;;
17921;SDS011;9086;50.966;3.144;2023-07-31T08:11:30;4.97;;;4.63;;
17921;SDS011;9086;50.966;3.144;2023-07-31T08:13:56;5.10;;;4.70;;
17921;SDS011;9086;50.966;3.144;2023-07-31T08:16:22;5.60;;;5.30;;
17921;SDS011;9086;50.966;3.144;2023-07-31T08:18:48;4.27;;;3.97;;
17921;SDS011;9086;50.966;3.144;2023-07-31T08:21:14;4.75;;;4.47;;
17921;SDS011;9086;50.966;3.144;2023-07-31T08:23:40;5.15;;;4.85;;
17921;SDS011;9086;50.966;3.144;2023-07-31T08:26:06;5.50;;;5.10;;
17921;SDS011;9086;50.966;3.144;2023-07-31T08:28:32;5.72;;;5.25;;
17921;SDS011;9086;50.966;3.144;2023-07-31T08:31:00;5.80;;;5.33;;
17921;SDS011;9086;50.966;3.144;2023-07-31T08:33:26;6.13;;;5.72;;
17921;SDS011;9086;50.966;3.144;2023-07-31T08:35:52;7.53;;;7.03;;
17921;SDS011;9086;50.966;3.144;2023-07-31T08:38:18;6.47;;;5.95;;
17921;SDS011;9086;50.966;3.144;2023-07-31T08:40:44;7.18;;;6.75;;
17921;SDS011;9086;50.966;3.144;2023-07-31T08:43:10;7.70;;;7.30;;
17921;SDS011;9086;50.966;3.144;2023-07-31T08:45:36;9.02;;;8.52;;
17921;SDS011;9086;50.966;3.144;2023-07-31T08:48:03;8.43;;;7.90;;
17921;SDS011;9086;50.966;3.144;2023-07-31T08:50:29;9.73;;;9.10;;
17921;SDS011;9086;50.966;3.144;2023-07-31T08:52:55;10.20;;;9.67;;
17921;SDS011;9086;50.966;3.144;2023-07-31T08:55:21;11.77;;;11.00;;
17921;SDS011;9086;50.966;3.144;2023-07-31T08:57:51;12.25;;;11.50;;
17921;SDS011;9086;50.966;3.144;2023-07-31T09:00:20;14.15;;;13.48;;
17921;SDS011;9086;50.966;3.144;2023-07-31T09:05:23;16.80;;;16.10;;
17921;SDS011;9086;50.966;3.144;2023-07-31T09:07:52;18.73;;;17.83;;
17921;SDS011;9086;50.966;3.144;2023-07-31T09:10:18;17.25;;;16.25;;
17921;SDS011;9086;50.966;3.144;2023-07-31T09:12:45;18.00;;;17.02;;
17921;SDS011;9086;50.966;3.144;2023-07-31T09:15:11;19.73;;;18.55;;
17921;SDS011;9086;50.966;3.144;2023-07-31T09:17:37;18.02;;;17.05;;
17921;SDS011;9086;50.966;3.144;2023-07-31T09:20:19;13.93;;;12.93;;
17921;SDS011;9086;50.966;3.144;2023-07-31T09:22:46;17.13;;;15.82;;
17921;SDS011;9086;50.966;3.144;2023-07-31T09:27:53;17.13;;;16.02;;
17921;SDS011;9086;50.966;3.144;2023-07-31T09:30:19;16.23;;;15.32;;
17921;SDS011;9086;50.966;3.144;2023-07-31T09:32:46;14.82;;;13.70;;
17921;SDS011;9086;50.966;3.144;2023-07-31T09:35:18;16.63;;;15.63;;
17921;SDS011;9086;50.966;3.144;2023-07-31T09:37:49;19.23;;;18.08;;
17921;SDS011;9086;50.966;3.144;2023-07-31T09:40:24;18.38;;;17.17;;
17921;SDS011;9086;50.966;3.144;2023-07-31T09:42:51;23.30;;;21.98;;
17921;SDS011;9086;50.966;3.144;2023-07-31T09:45:17;22.30;;;20.90;;
17921;SDS011;9086;50.966;3.144;2023-07-31T09:47:47;20.35;;;18.73;;
17921;SDS011;9086;50.966;3.144;2023-07-31T09:50:14;19.77;;;18.88;;
17921;SDS011;9086;50.966;3.144;2023-07-31T09:52:43;22.48;;;21.27;;
17921;SDS011;9086;50.966;3.144;2023-07-31T09:55:09;24.48;;;23.00;;
17921;SDS011;9086;50.966;3.144;2023-07-31T09:57:39;22.92;;;21.42;;
17921;SDS011;9086;50.966;3.144;2023-07-31T10:00:07;22.98;;;21.60;;
17921;SDS011;9086;50.966;3.144;2023-07-31T10:02:34;21.95;;;20.67;;
17921;SDS011;9086;50.966;3.144;2023-07-31T10:05:02;22.92;;;21.52;;
17921;SDS011;9086;50.966;3.144;2023-07-31T10:07:28;20.77;;;19.35;;
17921;SDS011;9086;50.966;3.144;2023-07-31T10:09:57;25.88;;;24.67;;
17921;SDS011;9086;50.966;3.144;2023-07-31T10:12:24;25.35;;;23.85;;
17921;SDS011;9086;50.966;3.144;2023-07-31T10:14:53;24.40;;;23.10;;
17921;SDS011;9086;50.966;3.144;2023-07-31T10:17:21;25.20;;;23.90;;
17921;SDS011;9086;50.966;3.144;2023-07-31T10:19:47;28.23;;;26.58;;
17921;SDS011;9086;50.966;3.144;2023-07-31T10:22:14;21.55;;;20.25;;
17921;SDS011;9086;50.966;3.144;2023-07-31T10:24:41;21.85;;;20.63;;
17921;SDS011;9086;50.966;3.144;2023-07-31T10:27:08;24.05;;;22.90;;
17921;SDS011;9086;50.966;3.144;2023-07-31T10:29:36;19.65;;;18.50;;
17921;SDS011;9086;50.966;3.144;2023-07-31T10:32:02;17.10;;;15.98;;
17921;SDS011;9086;50.966;3.144;2023-07-31T10:34:31;15.85;;;14.85;;
17921;SDS011;9086;50.966;3.144;2023-07-31T10:39:43;13.05;;;11.93;;
17921;SDS011;9086;50.966;3.144;2023-07-31T10:42:10;11.85;;;10.85;;
17921;SDS011;9086;50.966;3.144;2023-07-31T10:44:36;14.75;;;13.55;;
17921;SDS011;9086;50.966;3.144;2023-07-31T10:47:02;9.07;;;8.48;;
17921;SDS011;9086;50.966;3.144;2023-07-31T10:49:28;10.52;;;8.43;;
17921;SDS011;9086;50.966;3.144;2023-07-31T10:51:56;9.18;;;8.23;;
17921;SDS011;9086;50.966;3.144;2023-07-31T10:54:23;7.85;;;7.05;;
17921;SDS011;9086;50.966;3.144;2023-07-31T10:56:52;8.88;;;7.22;;
17921;SDS011;9086;50.966;3.144;2023-07-31T10:59:18;7.63;;;7.03;;
17921;SDS011;9086;50.966;3.144;2023-07-31T11:04:24;5.63;;;5.00;;
17921;SDS011;9086;50.966;3.144;2023-07-31T11:06:57;6.38;;;5.03;;
17921;SDS011;9086;50.966;3.144;2023-07-31T11:09:24;4.38;;;3.97;;
17921;SDS011;9086;50.966;3.144;2023-07-31T11:11:50;5.35;;;4.20;;
17921;SDS011;9086;50.966;3.144;2023-07-31T11:14:17;9.32;;;4.38;;
17921;SDS011;9086;50.966;3.144;2023-07-31T11:16:43;5.93;;;4.35;;
17921;SDS011;9086;50.966;3.144;2023-07-31T11:19:09;8.35;;;4.60;;
17921;SDS011;9086;50.966;3.144;2023-07-31T11:21:35;10.23;;;4.68;;
17921;SDS011;9086;50.966;3.144;2023-07-31T11:24:02;5.50;;;4.68;;
17921;SDS011;9086;50.966;3.144;2023-07-31T11:26:28;4.78;;;4.22;;
17921;SDS011;9086;50.966;3.144;2023-07-31T11:28:55;4.88;;;4.18;;
17921;SDS011;9086;50.966;3.144;2023-07-31T11:31:22;6.82;;;4.97;;
17921;SDS011;9086;50.966;3.144;2023-07-31T11:33:48;6.57;;;4.65;;
17921;SDS011;9086;50.966;3.144;2023-07-31T11:36:18;5.18;;;4.05;;
17921;SDS011;9086;50.966;3.144;2023-07-31T11:38:44;5.65;;;4.25;;
17921;SDS011;9086;50.966;3.144;2023-07-31T11:41:10;5.43;;;4.93;;
17921;SDS011;9086;50.966;3.144;2023-07-31T11:43:36;5.72;;;4.57;;
17921;SDS011;9086;50.966;3.144;2023-07-31T11:46:02;4.57;;;3.85;;
17921;SDS011;9086;50.966;3.144;2023-07-31T11:48:29;4.97;;;3.95;;
17921;SDS011;9086;50.966;3.144;2023-07-31T11:50:58;5.32;;;3.78;;
17921;SDS011;9086;50.966;3.144;2023-07-31T11:55:53;5.63;;;3.15;;
17921;SDS011;9086;50.966;3.144;2023-07-31T11:58:20;3.63;;;3.17;;
17921;SDS011;9086;50.966;3.144;2023-07-31T12:00:46;3.10;;;2.85;;
17921;SDS011;9086;50.966;3.144;2023-07-31T12:03:13;5.85;;;3.80;;
17921;SDS011;9086;50.966;3.144;2023-07-31T12:05:39;4.25;;;2.60;;
17921;SDS011;9086;50.966;3.144;2023-07-31T12:08:08;5.53;;;3.92;;
17921;SDS011;9086;50.966;3.144;2023-07-31T12:10:35;3.70;;;2.47;;
17921;SDS011;9086;50.966;3.144;2023-07-31T12:13:05;3.25;;;2.95;;
17921;SDS011;9086;50.966;3.144;2023-07-31T12:17:57;3.28;;;3.08;;
17921;SDS011;9086;50.966;3.144;2023-07-31T12:20:24;3.22;;;2.97;;
17921;SDS011;9086;50.966;3.144;2023-07-31T12:22:50;4.93;;;3.22;;
17921;SDS011;9086;50.966;3.144;2023-07-31T12:25:16;6.05;;;3.88;;
17921;SDS011;9086;50.966;3.144;2023-07-31T12:27:45;4.50;;;4.10;;
17921;SDS011;9086;50.966;3.144;2023-07-31T12:30:27;6.55;;;4.07;;
17921;SDS011;9086;50.966;3.144;2023-07-31T12:32:54;4.30;;;3.97;;
17921;SDS011;9086;50.966;3.144;2023-07-31T12:35:20;5.05;;;4.75;;
17921;SDS011;9086;50.966;3.144;2023-07-31T12:37:46;5.88;;;5.38;;
17921;SDS011;9086;50.966;3.144;2023-07-31T12:40:12;5.18;;;4.88;;
17921;SDS011;9086;50.966;3.144;2023-07-31T12:42:38;7.25;;;6.68;;
17921;SDS011;9086;50.966;3.144;2023-07-31T12:45:04;8.05;;;7.55;;
17921;SDS011;9086;50.966;3.144;2023-07-31T12:47:30;8.88;;;8.32;;
17921;SDS011;9086;50.966;3.144;2023-07-31T12:49:56;9.65;;;9.15;;
17921;SDS011;9086;50.966;3.144;2023-07-31T12:52:22;14.50;;;13.80;;
17921;SDS011;9086;50.966;3.144;2023-07-31T12:54:49;12.80;;;12.07;;
17921;SDS011;9086;50.966;3.144;2023-07-31T12:57:15;14.57;;;13.77;;
17921;SDS011;9086;50.966;3.144;2023-07-31T12:59:41;18.27;;;17.38;;
17921;SDS011;9086;50.966;3.144;2023-07-31T13:02:07;20.50;;;19.50;;
17921;SDS011;9086;50.966;3.144;2023-07-31T13:04:33;20.33;;;19.35;;
17921;SDS011;9086;50.966;3.144;2023-07-31T13:06:59;18.77;;;17.88;;
17921;SDS011;9086;50.966;3.144;2023-07-31T13:09:25;22.20;;;21.30;;
17921;SDS011;9086;50.966;3.144;2023-07-31T13:11:51;26.85;;;25.75;;
17921;SDS011;9086;50.966;3.144;2023-07-31T13:14:17;26.67;;;25.65;;
17921;SDS011;9086;50.966;3.144;2023-07-31T13:16:43;31.05;;;29.75;;
17921;SDS011;9086;50.966;3.144;2023-07-31T13:19:09;34.55;;;33.25;;
17921;SDS011;9086;50.966;3.144;2023-07-31T13:21:35;41.65;;;40.10;;
17921;SDS011;9086;50.966;3.144;2023-07-31T13:24:02;47.88;;;46.08;;
17921;SDS011;9086;50.966;3.144;2023-07-31T13:26:29;53.40;;;51.40;;
17921;SDS011;9086;50.966;3.144;2023-07-31T13:28:55;61.10;;;58.95;;
17921;SDS011;9086;50.966;3.144;2023-07-31T13:31:21;57.88;;;55.78;;
17921;SDS011;9086;50.966;3.144;2023-07-31T13:33:48;67.05;;;64.55;;
17921;SDS011;9086;50.966;3.144;2023-07-31T13:36:14;76.03;;;73.18;;
17921;SDS011;9086;50.966;3.144;2023-07-31T13:38:40;69.03;;;66.55;;
17921;SDS011;9086;50.966;3.144;2023-07-31T13:41:06;71.90;;;69.40;;
17921;SDS011;9086;50.966;3.144;2023-07-31T13:43:32;74.80;;;72.20;;
17921;SDS011;9086;50.966;3.144;2023-07-31T13:45:58;77.20;;;74.55;;
17921;SDS011;9086;50.966;3.144;2023-07-31T13:48:31;78.20;;;75.50;;
17921;SDS011;9086;50.966;3.144;2023-07-31T13:50:57;85.47;;;82.47;;
17921;SDS011;9086;50.966;3.144;2023-07-31T13:53:23;97.28;;;94.07;;
17921;SDS011;9086;50.966;3.144;2023-07-31T13:55:49;101.07;;;97.63;;
17921;SDS011;9086;50.966;3.144;2023-07-31T13:58:15;102.22;;;98.88;;
17921;SDS011;9086;50.966;3.144;2023-07-31T14:00:41;111.60;;;107.90;;
17921;SDS011;9086;50.966;3.144;2023-07-31T14:03:07;108.22;;;104.68;;
17921;SDS011;9086;50.966;3.144;2023-07-31T14:05:33;110.10;;;106.50;;
17921;SDS011;9086;50.966;3.144;2023-07-31T14:07:59;120.25;;;116.43;;
17921;SDS011;9086;50.966;3.144;2023-07-31T14:10:25;117.50;;;113.70;;
17921;SDS011;9086;50.966;3.144;2023-07-31T14:12:51;123.50;;;119.50;;
17921;SDS011;9086;50.966;3.144;2023-07-31T14:15:17;146.20;;;141.52;;
17921;SDS011;9086;50.966;3.144;2023-07-31T14:17:43;140.55;;;136.07;;
17921;SDS011;9086;50.966;3.144;2023-07-31T14:20:10;152.85;;;148.02;;
17921;SDS011;9086;50.966;3.144;2023-07-31T14:22:36;142.52;;;138.00;;
17921;SDS011;9086;50.966;3.144;2023-07-31T14:25:03;155.18;;;150.27;;
17921;SDS011;9086;50.966;3.144;2023-07-31T14:27:29;167.15;;;161.93;;
17921;SDS011;9086;50.966;3.144;2023-07-31T14:29:55;179.07;;;173.52;;
17921;SDS011;9086;50.966;3.144;2023-07-31T14:32:21;186.55;;;180.85;;
17921;SDS011;9086;50.966;3.144;2023-07-31T14:34:50;194.82;;;188.82;;
17921;SDS011;9086;50.966;3.144;2023-07-31T14:37:16;185.30;;;179.55;;
17921;SDS011;9086;50.966;3.144;2023-07-31T14:39:42;225.45;;;218.65;;
17921;SDS011;9086;50.966;3.144;2023-07-31T14:42:08;212.57;;;206.02;;
17921;SDS011;9086;50.966;3.144;2023-07-31T14:44:34;216.80;;;210.20;;
17921;SDS011;9086;50.966;3.144;2023-07-31T14:47:00;210.40;;;203.95;;
17921;SDS011;9086;50.966;3.144;2023-07-31T14:49:26;216.82;;;210.15;;
17921;SDS011;9086;50.966;3.144;2023-07-31T14:51:53;218.80;;;212.15;;
17921;SDS011;9086;50.966;3.144;2023-07-31T14:54:19;209.60;;;203.18;;
17921;SDS011;9086;50.966;3.144;2023-07-31T14:56:45;204.63;;;198.30;;
17921;SDS011;9086;50.966;3.144;2023-07-31T14:59:11;218.45;;;211.75;;
17921;SDS011;9086;50.966;3.144;2023-07-31T15:01:37;212.25;;;205.65;;
17921;SDS011;9086;50.966;3.144;2023-07-31T15:04:03;219.93;;;213.23;;
17921;SDS011;9086;50.966;3.144;2023-07-31T15:06:30;228.52;;;221.43;;